Time;durP1;ratioP1;P1;durP2;ratioP2;P2;SDS_P1;SDS_P2;PMS_P1;PMS_P2;Temp;Humidity;BMP_temperature;BMP_pressure;BME280_temperature;BME280_humidity;BME280_pressure;Samples;Min_cycle;Max_cycle;Signal;HPM_P1;HPM_P2
2024/03/20 00:01:55;;;;;;;;;;;;;;;7.44;100.00;96741.09;5087138;28;19957;-70
2024/03/20 00:04:21;;;;;;;;;;;;;;;7.40;100.00;96737.25;5087530;28;19977;-70
2024/03/20 00:06:47;;;;;;;;;;;;;;;7.36;100.00;96733.41;5086604;28;19935;-71
2024/03/20 00:09:13;;;;;;;;;;;;;;;7.33;100.00;96734.59;5086818;28;19995;-74
2024/03/20 00:11:39;;;;;;;;;;;;;;;7.30;100.00;96732.34;5085291;28;19941;-71
2024/03/20 00:14:05;;;;;;;;;;;;;;;7.27;100.00;96728.31;5069414;28;19986;-71
2024/03/20 00:16:31;;;;;;;;;;;;;;;7.25;100.00;96725.09;5086831;28;19941;-71
2024/03/20 00:18:57;;;;;;;;;;;;;;;7.23;100.00;96726.28;5051830;28;19941;-71
2024/03/20 00:21:23;;;;;;;;;;;;;;;7.19;100.00;96732.88;5051812;28;20155;-72
2024/03/20 00:23:49;;;;;;;;;;;;;;;7.16;100.00;96731.47;5085651;28;19943;-71
2024/03/20 00:26:14;;;;;;;;;;;;;;;7.14;100.00;96730.00;5068562;28;19940;-74
2024/03/20 00:28:41;;;;;;;;;;;;;;;7.13;100.00;96725.81;5051826;28;19947;-81
2024/03/20 00:31:06;;;;;;;;;;;;;;;7.11;100.00;96731.19;5086727;28;19937;-71
2024/03/20 00:33:32;;;;;;;;;;;;;;;7.10;100.00;96733.00;5086642;28;19938;-71
2024/03/20 00:35:58;;;;;;;;;;;;;;;7.08;100.00;96735.00;5068660;28;20136;-71
2024/03/20 00:38:24;;;;;;;;;;;;;;;7.07;100.00;96728.16;5086815;28;20120;-71
2024/03/20 00:40:50;;;;;;;;;;;;;;;7.05;100.00;96734.56;5051995;28;19965;-71
2024/03/20 00:43:16;;;;;;;;;;;;;;;7.02;100.00;96727.94;5052292;28;20101;-71
2024/03/20 00:45:43;;;;;;;;;;;;;;;7.01;100.00;96731.50;5086131;28;19956;-74
2024/03/20 00:48:09;;;;;;;;;;;;;;;6.99;100.00;96732.69;5067994;28;19944;-71
2024/03/20 00:50:35;;;;;;;;;;;;;;;6.96;100.00;96718.25;5085845;28;19943;-71
2024/03/20 00:53:02;;;;;;;;;;;;;;;6.93;100.00;96720.41;5086540;28;20138;-71
2024/03/20 00:55:27;;;;;;;;;;;;;;;6.91;100.00;96715.41;5086464;28;19948;-71
2024/03/20 00:57:53;;;;;;;;;;;;;;;6.87;100.00;96714.97;5085691;28;19975;-71
2024/03/20 01:00:19;;;;;;;;;;;;;;;6.84;100.00;96714.53;5084959;28;20251;-71
2024/03/20 01:02:46;;;;;;;;;;;;;;;6.82;100.00;96717.31;5086007;28;19954;-71
2024/03/20 01:05:12;;;;;;;;;;;;;;;6.79;100.00;96709.09;5086353;28;19934;-71
2024/03/20 01:07:38;;;;;;;;;;;;;;;6.76;100.00;96718.09;5085467;28;19941;-71
2024/03/20 01:10:04;;;;;;;;;;;;;;;6.74;100.00;96712.25;5051672;28;20000;-71
2024/03/20 01:12:30;;;;;;;;;;;;;;;6.72;100.00;96711.63;5067886;28;19937;-72
2024/03/20 01:14:56;;;;;;;;;;;;;;;6.69;100.00;96714.59;5051569;28;19940;-71
2024/03/20 01:17:22;;;;;;;;;;;;;;;6.66;100.00;96709.78;5068359;28;19947;-72
2024/03/20 01:19:48;;;;;;;;;;;;;;;6.63;100.00;96710.94;5068031;28;19940;-71
2024/03/20 01:22:13;;;;;;;;;;;;;;;6.63;100.00;96704.91;5067449;28;19959;-74
2024/03/20 01:24:39;;;;;;;;;;;;;;;6.60;100.00;96707.91;5068260;28;19931;-82
2024/03/20 01:27:06;;;;;;;;;;;;;;;6.58;100.00;96705.47;5085922;28;19957;-74
2024/03/20 01:29:31;;;;;;;;;;;;;;;6.58;100.00;96699.47;5084263;28;19940;-74
2024/03/20 01:31:57;;;;;;;;;;;;;;;6.55;100.00;96703.25;5085007;28;20123;-74
2024/03/20 01:34:23;;;;;;;;;;;;;;;6.54;100.00;96700.84;5084929;28;19936;-74
2024/03/20 01:36:51;;;;;;;;;;;;;;;6.52;100.00;96702.81;5067437;28;19944;-75
2024/03/20 01:39:18;;;;;;;;;;;;;;;6.48;100.00;96708.38;5067702;28;19944;-74
2024/03/20 01:41:45;;;;;;;;;;;;;;;6.47;100.00;96706.78;5085175;28;20291;-74
2024/03/20 01:44:11;;;;;;;;;;;;;;;6.46;100.00;96699.16;5084800;28;19941;-74
2024/03/20 01:46:37;;;;;;;;;;;;;;;6.44;100.00;96703.72;5084771;28;19965;-74
2024/03/20 01:49:04;;;;;;;;;;;;;;;6.42;100.00;96700.50;5084719;28;19942;-74
2024/03/20 01:51:31;;;;;;;;;;;;;;;6.39;100.00;96701.69;5067517;28;19939;-74
2024/03/20 01:53:57;;;;;;;;;;;;;;;6.38;100.00;96704.47;5067577;28;19949;-74
2024/03/20 01:56:23;;;;;;;;;;;;;;;6.36;100.00;96696.03;5050080;28;19948;-74
2024/03/20 01:58:49;;;;;;;;;;;;;;;6.33;100.00;96694.63;5084428;28;19943;-71
2024/03/20 02:01:15;;;;;;;;;;;;;;;6.32;100.00;96700.81;5084425;28;19951;-71
2024/03/20 02:03:43;;;;;;;;;;;;;;;6.30;100.00;96689.78;5085230;28;19939;-70
2024/03/20 02:06:38;;;;;;;;;;;;;;;6.27;100.00;96685.72;5066535;28;20137;-71
2024/03/20 02:09:07;;;;;;;;;;;;;;;6.24;100.00;96696.53;5067251;28;19961;-71
2024/03/20 02:11:33;;;;;;;;;;;;;;;6.22;100.00;96693.28;5067217;28;20216;-71
2024/03/20 02:13:59;;;;;;;;;;;;;;;6.21;100.00;96685.66;5084766;28;19942;-71
2024/03/20 02:16:26;;;;;;;;;;;;;;;6.20;100.00;96684.06;5084488;28;19940;-71
2024/03/20 02:18:53;;;;;;;;;;;;;;;6.19;100.00;96688.44;5084238;28;19933;-80
2024/03/20 02:21:19;;;;;;;;;;;;;;;6.17;100.00;96695.63;5084153;28;19965;-74
2024/03/20 02:23:45;;;;;;;;;;;;;;;6.17;100.00;96692.22;5084989;28;19940;-74
2024/03/20 02:26:11;;;;;;;;;;;;;;;6.14;100.00;96692.59;5084904;28;19940;-74
2024/03/20 02:28:39;;;;;;;;;;;;;;;6.12;100.00;96694.59;5084605;28;19950;-74
2024/03/20 02:31:08;;;;;;;;;;;;;;;6.08;100.00;96694.94;5084043;28;20117;-74
2024/03/20 02:33:35;;;;;;;;;;;;;;;6.03;100.00;96692.09;5084000;28;19942;-74
2024/03/20 02:36:01;;;;;;;;;;;;;;;6.01;100.00;96698.47;5066068;28;19952;-71
2024/03/20 02:38:29;;;;;;;;;;;;;;;5.98;100.00;96704.03;5083982;28;19933;-81
2024/03/20 02:40:56;;;;;;;;;;;;;;;5.94;100.00;96703.53;5065683;28;19945;-81
2024/03/20 02:43:22;;;;;;;;;;;;;;;5.93;100.00;96701.16;5084292;28;20124;-82
2024/03/20 02:45:48;;;;;;;;;;;;;;;5.91;100.00;96703.94;5084493;28;19946;-82
2024/03/20 02:48:14;;;;;;;;;;;;;;;5.89;100.00;96701.50;5083938;28;20168;-81
2024/03/20 02:50:40;;;;;;;;;;;;;;;5.87;100.00;96694.88;5083891;28;19979;-82
2024/03/20 02:53:06;;;;;;;;;;;;;;;5.86;100.00;96701.06;5066624;28;19942;-82
2024/03/20 02:55:32;;;;;;;;;;;;;;;5.84;100.00;96698.66;5083828;28;19939;-71
2024/03/20 02:57:58;;;;;;;;;;;;;;;5.82;100.00;96700.63;5066688;28;19939;-71
2024/03/20 03:00:24;;;;;;;;;;;;;;;5.80;100.00;96697.38;5066540;28;19939;-71
2024/03/20 03:02:50;;;;;;;;;;;;;;;5.78;100.00;96701.97;5066389;28;19966;-71
2024/03/20 03:05:16;;;;;;;;;;;;;;;5.74;100.00;96694.72;5065982;28;20125;-71
2024/03/20 03:07:42;;;;;;;;;;;;;;;5.73;100.00;96708.69;5065740;28;19945;-71
2024/03/20 03:10:09;;;;;;;;;;;;;;;5.68;100.00;96702.22;5065895;28;19942;-71
2024/03/20 03:12:35;;;;;;;;;;;;;;;5.67;100.00;96699.84;5083942;28;19930;-81
2024/03/20 03:15:01;;;;;;;;;;;;;;;5.63;100.00;96707.19;5084194;28;19942;-79
2024/03/20 03:17:26;;;;;;;;;;;;;;;5.61;100.00;96711.75;5083745;28;19942;-80
2024/03/20 03:19:54;;;;;;;;;;;;;;;5.60;100.00;96710.13;5083624;28;19942;-80
2024/03/20 03:22:19;;;;;;;;;;;;;;;5.58;100.00;96709.50;5083552;28;20216;-81
2024/03/20 03:24:45;;;;;;;;;;;;;;;5.58;100.00;96713.91;5084401;28;19996;-80
2024/03/20 03:27:11;;;;;;;;;;;;;;;5.56;100.00;96719.28;5083793;28;19947;-80
2024/03/20 03:29:37;;;;;;;;;;;;;;;5.55;100.00;96722.88;5083515;28;19935;-86
2024/03/20 03:32:03;;;;;;;;;;;;;;;5.51;100.00;96723.41;5084042;28;19944;-71
2024/03/20 03:34:29;;;;;;;;;;;;;;;5.50;100.00;96725.19;5066198;28;19944;-82
2024/03/20 03:36:55;;;;;;;;;;;;;;;5.48;100.00;96722.78;5064909;28;19942;-81
2024/03/20 03:39:20;;;;;;;;;;;;;;;5.49;100.00;96734.00;5048961;28;19944;-82
2024/03/20 03:41:46;;;;;;;;;;;;;;;5.48;100.00;96730.59;5083631;28;19972;-82
2024/03/20 03:44:13;;;;;;;;;;;;;;;5.49;100.00;96724.38;5083451;28;20200;-81
2024/03/20 03:46:39;;;;;;;;;;;;;;;5.51;100.00;96733.81;5065556;28;19938;-81
2024/03/20 03:49:04;;;;;;;;;;;;;;;5.52;100.00;96720.63;5083317;28;19965;-74
2024/03/20 03:51:30;;;;;;;;;;;;;;;5.52;100.00;96720.63;5084165;28;20239;-71
2024/03/20 03:53:56;;;;;;;;;;;;;;;5.54;100.00;96721.25;5086942;28;19983;-74
2024/03/20 03:56:22;;;;;;;;;;;;;;;5.55;100.00;96725.47;5069695;28;19935;-75
2024/03/20 03:58:48;;;;;;;;;;;;;;;5.56;100.00;96728.88;5069709;28;19990;-75
2024/03/20 04:01:13;;;;;;;;;;;;;;;5.54;100.00;96721.25;5086718;28;19935;-74
2024/03/20 04:03:39;;;;;;;;;;;;;;;5.52;100.00;96712.00;5086765;28;19938;-74
2024/03/20 04:06:05;;;;;;;;;;;;;;;5.49;100.00;96719.19;5086673;28;19963;-74
2024/03/20 04:08:31;;;;;;;;;;;;;;;5.46;100.00;96713.56;5086653;28;19953;-85
2024/03/20 04:10:57;;;;;;;;;;;;;;;5.43;100.00;96721.69;5087153;28;20014;-74
2024/03/20 04:13:23;;;;;;;;;;;;;;;5.41;100.00;96718.47;5087094;28;19948;-74
2024/03/20 04:15:49;;;;;;;;;;;;;;;5.40;100.00;96724.66;5068568;28;19947;-74
2024/03/20 04:18:17;;;;;;;;;;;;;;;5.38;100.00;96718.84;5086498;28;19946;-74
2024/03/20 04:20:43;;;;;;;;;;;;;;;5.37;100.00;96720.63;5052633;28;19938;-74
2024/03/20 04:23:09;;;;;;;;;;;;;;;5.38;100.00;96729.25;5068415;28;19960;-74
2024/03/20 04:25:35;;;;;;;;;;;;;;;5.36;100.00;96719.00;5086882;28;19948;-71
2024/03/20 04:28:01;;;;;;;;;;;;;;;5.36;100.00;96729.41;5068475;28;19943;-73
2024/03/20 04:30:26;;;;;;;;;;;;;;;5.35;100.00;96725.19;5086312;28;19986;-71
2024/03/20 04:32:52;;;;;;;;;;;;;;;5.36;100.00;96726.81;5052435;28;19939;-71
2024/03/20 04:35:18;;;;;;;;;;;;;;;5.36;100.00;96726.00;5086181;28;20004;-71
2024/03/20 04:37:44;;;;;;;;;;;;;;;5.36;100.00;96726.81;5086131;28;19990;-71
2024/03/20 04:40:10;;;;;;;;;;;;;;;5.37;100.00;96727.63;5086069;28;20221;-71
2024/03/20 04:42:36;;;;;;;;;;;;;;;5.36;100.00;96723.41;5068033;28;20069;-71
2024/03/20 04:45:03;;;;;;;;;;;;;;;5.34;100.00;96723.59;5051826;28;19983;-70
2024/03/20 04:47:29;;;;;;;;;;;;;;;5.34;100.00;96725.38;5086016;28;19939;-71
2024/03/20 04:49:55;;;;;;;;;;;;;;;5.32;100.00;96722.16;5067966;28;19948;-71
2024/03/20 04:52:21;;;;;;;;;;;;;;;5.32;100.00;96722.94;5086146;28;19944;-71
2024/03/20 04:54:47;;;;;;;;;;;;;;;5.31;100.00;96731.72;5068286;28;19941;-72
2024/03/20 04:57:12;;;;;;;;;;;;;;;5.29;100.00;96721.53;5067890;28;19940;-71
2024/03/20 04:59:38;;;;;;;;;;;;;;;5.26;100.00;96729.66;5068655;28;20149;-72
2024/03/20 05:02:04;;;;;;;;;;;;;;;5.24;100.00;96729.03;5068404;28;19955;-71
2024/03/20 05:04:30;;;;;;;;;;;;;;;5.22;100.00;96735.41;5066595;28;20182;-83
2024/03/20 05:06:56;;;;;;;;;;;;;;;5.19;100.00;96733.97;5068184;28;19931;-72
2024/03/20 05:09:22;;;;;;;;;;;;;;;5.18;100.00;96729.72;5067741;28;19964;-71
2024/03/20 05:11:48;;;;;;;;;;;;;;;5.17;100.00;96722.94;5051743;28;19958;-72
2024/03/20 05:14:14;;;;;;;;;;;;;;;5.17;100.00;96732.53;5050990;28;20223;-71
2024/03/20 05:16:40;;;;;;;;;;;;;;;5.15;100.00;96734.50;5050921;28;20255;-71
2024/03/20 05:19:06;;;;;;;;;;;;;;;5.12;100.00;96725.22;5067506;28;19946;-71
2024/03/20 05:21:32;;;;;;;;;;;;;;;5.07;100.00;96730.97;5067829;28;19938;-74
2024/03/20 05:23:58;;;;;;;;;;;;;;;5.05;100.00;96726.94;5068136;28;19939;-71
2024/03/20 05:26:24;;;;;;;;;;;;;;;5.03;100.00;96724.50;5085156;28;20217;-70
2024/03/20 05:28:50;;;;;;;;;;;;;;;5.05;100.00;96724.34;5085909;28;19941;-72
2024/03/20 05:31:26;;;;;;;;;;;;;;;5.04;100.00;96722.69;5067352;28;19944;-71
2024/03/20 05:33:52;;;;;;;;;;;;;;;5.04;100.00;96717.50;5085020;28;19944;-71
2024/03/20 05:36:18;;;;;;;;;;;;;;;5.04;100.00;96720.94;5085729;28;20010;-71
2024/03/20 05:38:44;;;;;;;;;;;;;;;5.04;100.00;96726.13;5067213;28;19939;-71
2024/03/20 05:41:10;;;;;;;;;;;;;;;5.06;100.00;96723.34;5067219;28;20004;-71
2024/03/20 05:43:35;;;;;;;;;;;;;;;5.06;100.00;96725.94;5085338;28;19970;-74
2024/03/20 05:46:03;;;;;;;;;;;;;;;5.05;100.00;96732.13;5050390;28;20236;-74
2024/03/20 05:48:29;;;;;;;;;;;;;;;5.05;100.00;96722.53;5067651;28;19944;-75
2024/03/20 05:50:58;;;;;;;;;;;;;;;5.07;100.00;96738.75;5050240;28;19943;-74
2024/03/20 05:53:24;;;;;;;;;;;;;;;5.12;100.00;96734.84;5067199;28;19942;-74
2024/03/20 05:55:50;;;;;;;;;;;;;;;5.15;100.00;96737.91;5050378;28;19940;-75
2024/03/20 05:58:19;;;;;;;;;;;;;;;5.19;100.00;96735.75;5084645;28;19943;-74
2024/03/20 06:00:45;;;;;;;;;;;;;;;5.21;100.00;96733.78;5084893;28;19934;-70
2024/03/20 06:03:10;;;;;;;;;;;;;;;5.25;100.00;96740.25;5067527;28;20251;-70
2024/03/20 06:05:36;;;;;;;;;;;;;;;5.34;100.00;96735.78;5084464;28;20280;-70
2024/03/20 06:08:02;;;;;;;;;;;;;;;5.49;100.00;96734.78;5084901;28;20249;-70
2024/03/20 06:10:28;;;;;;;;;;;;;;;5.73;100.00;96732.91;5084631;28;19994;-70
2024/03/20 06:12:54;;;;;;;;;;;;;;;5.99;100.00;96729.09;5084282;28;19938;-70
2024/03/20 06:15:20;;;;;;;;;;;;;;;6.35;100.00;96730.91;5084177;28;19947;-70
2024/03/20 06:17:47;;;;;;;;;;;;;;;6.89;100.00;96723.41;5084305;28;19940;-75
2024/03/20 06:20:15;;;;;;;;;;;;;;;7.53;100.00;96712.03;5067016;28;19975;-74
2024/03/20 06:22:41;;;;;;;;;;;;;;;8.12;100.00;96702.06;5067042;28;20136;-74
2024/03/20 06:25:07;;;;;;;;;;;;;;;8.63;100.00;96693.78;5084923;28;20013;-75
2024/03/20 06:27:34;;;;;;;;;;;;;;;9.17;100.00;96681.50;5049721;28;19939;-74
2024/03/20 06:29:59;;;;;;;;;;;;;;;9.63;100.00;96654.44;5067003;28;19937;-75
2024/03/20 06:32:31;;;;;;;;;;;;;;;9.97;100.00;96644.63;5066841;28;19986;-75
2024/03/20 06:34:56;;;;;;;;;;;;;;;10.20;100.00;96649.34;5084338;28;19941;-71
2024/03/20 06:37:24;;;;;;;;;;;;;;;10.27;100.00;96642.28;5084070;28;19939;-79
2024/03/20 06:39:49;;;;;;;;;;;;;;;10.39;100.00;96639.00;5083993;28;19957;-71
2024/03/20 06:42:21;;;;;;;;;;;;;;;10.44;100.00;96641.81;5065828;28;20034;-71
2024/03/20 06:44:47;;;;;;;;;;;;;;;10.60;100.00;96648.34;5084806;28;19943;-71
2024/03/20 06:47:14;;;;;;;;;;;;;;;10.80;100.00;96643.75;5084735;28;19950;-71
2024/03/20 06:49:40;;;;;;;;;;;;;;;10.92;100.00;96628.94;5083930;28;19938;-71
2024/03/20 06:52:06;;;;;;;;;;;;;;;10.94;100.00;96632.16;5066135;28;19948;-71
2024/03/20 06:54:31;;;;;;;;;;;;;;;10.91;100.00;96631.75;5083236;28;19946;-71
2024/03/20 06:57:03;;;;;;;;;;;;;;;10.94;100.00;96642.63;5083892;28;19939;-75
2024/03/20 06:59:30;;;;;;;;;;;;;;;10.95;100.00;96633.72;5066849;28;20108;-74
2024/03/20 07:01:58;;;;;;;;;;;;;;;10.91;100.00;96643.06;5084232;28;19947;-75
2024/03/20 07:04:25;;;;;;;;;;;;;;;10.85;100.00;96648.34;5084324;28;19949;-75
2024/03/20 07:06:51;;;;;;;;;;;;;;;10.89;100.00;96658.19;5083677;28;20134;-75
2024/03/20 07:09:17;;;;;;;;;;;;;;;10.96;100.00;96666.84;5066412;28;19961;-74
2024/03/20 07:11:43;;;;;;;;;;;;;;;11.05;100.00;96662.13;5084545;28;19937;-83
2024/03/20 07:14:09;;;;;;;;;;;;;;;11.10;100.00;96653.59;5065731;28;19951;-71
2024/03/20 07:16:36;;;;;;;;;;;;;;;11.11;100.00;96663.88;5065785;28;19949;-80
2024/03/20 07:19:01;;;;;;;;;;;;;;;11.12;100.00;96654.19;5084121;28;19937;-80
2024/03/20 07:21:27;;;;;;;;;;;;;;;11.00;100.00;96654.06;5083641;28;19974;-80
2024/03/20 07:23:53;;;;;;;;;;;;;;;10.88;100.00;96674.97;5049664;28;19961;-83
2024/03/20 07:26:19;;;;;;;;;;;;;;;10.74;100.00;96660.34;5084134;28;19942;-84
2024/03/20 07:28:45;;;;;;;;;;;;;;;10.86;100.00;96690.13;5087764;28;19941;-83
2024/03/20 07:31:11;;;;;;;;;;;;;;;11.05;100.00;96683.13;5087480;28;19940;-70
2024/03/20 07:33:37;;;;;;;;;;;;;;;11.25;100.00;96693.44;5087643;28;19941;-70
2024/03/20 07:36:03;;;;;;;;;;;;;;;11.47;100.00;96685.19;5087310;28;19935;-70
2024/03/20 07:38:29;;;;;;;;;;;;;;;11.68;100.00;96681.31;5087784;28;19938;-70
2024/03/20 07:40:55;;;;;;;;;;;;;;;11.76;100.00;96671.31;5087029;28;19942;-71
2024/03/20 07:43:21;;;;;;;;;;;;;;;11.86;100.00;96683.13;5087651;28;19979;-71
2024/03/20 07:45:47;;;;;;;;;;;;;;;11.93;100.00;96676.81;5069424;28;20135;-70
2024/03/20 07:48:14;;;;;;;;;;;;;;;12.09;100.00;96680.66;5087067;28;19963;-83
2024/03/20 07:50:40;;;;;;;;;;;;;;;12.14;100.00;96674.75;5087519;28;19959;-71
2024/03/20 07:53:06;;;;;;;;;;;;;;;12.16;100.00;96675.31;5069302;28;19942;-84
2024/03/20 07:55:32;;;;;;;;;;;;;;;12.24;100.00;96672.41;5068547;28;19944;-83
2024/03/20 07:57:58;;;;;;;;;;;;;;;12.30;100.00;96681.19;5087023;28;20224;-83
2024/03/20 08:00:31;;;;;;;;;;;;;;;12.35;100.00;96678.72;5069120;28;19948;-84
2024/03/20 08:02:57;;;;;;;;;;;;;;;12.40;100.00;96686.72;5085885;28;20127;-84
2024/03/20 08:05:24;;;;;;;;;;;;;;;12.47;100.00;96686.63;5086727;28;19933;-82
2024/03/20 08:07:50;;;;;;;;;;;;;;;12.52;100.00;96674.44;5086637;28;19972;-82
2024/03/20 08:10:15;;;;;;;;;;;;;;;12.58;100.00;96670.91;5069111;28;19982;-71
2024/03/20 08:12:42;;;;;;;;;;;;;;;12.73;100.00;96673.09;5086625;28;19957;-70
2024/03/20 08:15:08;;;;;;;;;;;;;;;12.88;100.00;96682.41;5086576;28;19934;-70
2024/03/20 08:17:36;;;;;;;;;;;;;;;13.03;100.00;96672.25;5086546;28;19943;-70
2024/03/20 08:20:02;;;;;;;;;;;;;;;13.26;100.00;96678.56;5086407;28;19936;-70
2024/03/20 08:22:29;;;;;;;;;;;;;;;13.53;100.00;96663.13;5086370;28;19954;-70
2024/03/20 08:24:55;;;;;;;;;;;;;;;13.75;100.00;96653.56;5087158;28;19967;-84
2024/03/20 08:27:25;;;;;;;;;;;;;;;13.80;100.00;96648.38;5068602;28;19942;-70
2024/03/20 08:29:51;;;;;;;;;;;;;;;13.77;100.00;96634.88;5086814;28;19956;-70
2024/03/20 08:32:17;;;;;;;;;;;;;;;13.73;100.00;96653.00;5051754;28;19954;-70
2024/03/20 08:34:43;;;;;;;;;;;;;;;13.69;100.00;96656.31;5086172;28;19942;-70
2024/03/20 08:37:09;;;;;;;;;;;;;;;13.75;100.00;96655.38;5068142;28;19946;-70
2024/03/20 08:39:35;;;;;;;;;;;;;;;13.92;100.00;96664.19;5086570;28;19948;-70
2024/03/20 08:42:01;;;;;;;;;;;;;;;14.13;100.00;96646.94;5085775;28;19973;-70
2024/03/20 08:44:28;;;;;;;;;;;;;;;14.24;100.00;96639.16;5068016;28;20038;-76
2024/03/20 08:46:54;;;;;;;;;;;;;;;14.24;100.00;96655.81;5086747;28;19946;-71
2024/03/20 08:49:20;;;;;;;;;;;;;;;14.32;100.00;96660.72;5085951;28;19963;-71
2024/03/20 08:51:45;;;;;;;;;;;;;;;14.40;100.00;96631.31;5052260;28;19946;-72
2024/03/20 08:54:12;;;;;;;;;;;;;;;14.35;100.00;96638.34;5085836;28;20004;-71
2024/03/20 08:56:38;;;;;;;;;;;;;;;14.38;100.00;96661.59;5086555;28;19948;-71
2024/03/20 08:59:04;;;;;;;;;;;;;;;14.43;100.00;96651.16;5068461;28;19935;-71
2024/03/20 09:01:29;;;;;;;;;;;;;;;14.39;100.00;96650.81;5086454;28;19943;-71
2024/03/20 09:03:55;;;;;;;;;;;;;;;14.50;100.00;96651.00;5067852;28;19955;-80
2024/03/20 09:06:21;;;;;;;;;;;;;;;14.59;100.00;96634.56;5086182;28;19940;-70
2024/03/20 09:08:47;;;;;;;;;;;;;;;14.73;100.00;96647.47;5085559;28;20014;-72
2024/03/20 09:11:13;;;;;;;;;;;;;;;14.92;99.26;96627.69;5085529;28;19941;-71
2024/03/20 09:13:39;;;;;;;;;;;;;;;15.05;100.00;96642.41;5067645;28;19944;-71
2024/03/20 09:16:05;;;;;;;;;;;;;;;15.12;94.50;96608.72;5086242;28;19939;-71
2024/03/20 09:18:30;;;;;;;;;;;;;;;15.13;93.18;96591.03;5085362;28;20125;-71
2024/03/20 09:20:56;;;;;;;;;;;;;;;15.15;94.91;96604.78;5068129;28;19938;-71
2024/03/20 09:23:23;;;;;;;;;;;;;;;15.19;89.16;96576.84;5050832;28;19954;-71
2024/03/20 09:25:49;;;;;;;;;;;;;;;15.18;86.55;96549.63;5085230;28;20131;-71
2024/03/20 09:28:15;;;;;;;;;;;;;;;15.15;89.69;96579.16;5085114;28;20255;-71
2024/03/20 09:30:41;;;;;;;;;;;;;;;15.29;84.74;96536.56;5085126;28;19934;-71
2024/03/20 09:33:07;;;;;;;;;;;;;;;15.49;80.62;96523.56;5085063;28;20140;-71
2024/03/20 09:35:33;;;;;;;;;;;;;;;15.81;84.35;96541.38;5085768;28;19940;-71
2024/03/20 09:37:59;;;;;;;;;;;;;;;16.10;77.49;96522.63;5085432;28;19933;-71
2024/03/20 09:40:26;;;;;;;;;;;;;;;16.38;83.48;96540.09;5085644;28;19985;-77
2024/03/20 09:42:55;;;;;;;;;;;;;;;16.64;77.18;96502.13;5084758;28;19963;-74
2024/03/20 09:45:22;;;;;;;;;;;;;;;16.75;79.53;96518.09;5084748;28;19950;-73
2024/03/20 09:47:49;;;;;;;;;;;;;;;16.89;76.64;96521.13;5084696;28;19940;-74
2024/03/20 09:50:15;;;;;;;;;;;;;;;17.01;69.71;96487.31;5084019;28;20229;-74
2024/03/20 09:52:40;;;;;;;;;;;;;;;17.01;77.13;96511.94;5085153;28;19941;-74
2024/03/20 09:55:07;;;;;;;;;;;;;;;17.07;76.15;96514.59;5084592;28;19931;-76
2024/03/20 09:57:33;;;;;;;;;;;;;;;17.27;67.38;96463.56;5084553;28;19939;-71
2024/03/20 09:59:59;;;;;;;;;;;;;;;17.30;78.07;96514.16;5067042;28;19931;-77
2024/03/20 10:02:26;;;;;;;;;;;;;;;17.31;71.62;96594.50;5066594;28;19940;-77
2024/03/20 10:04:55;;;;;;;;;;;;;;;17.28;67.95;96608.25;5084420;28;19945;-78
2024/03/20 10:07:21;;;;;;;;;;;;;;;17.38;79.75;96646.22;5049821;28;19946;-77
2024/03/20 10:09:47;;;;;;;;;;;;;;;17.42;74.33;96626.09;5067158;28;19963;-77
2024/03/20 10:12:16;;;;;;;;;;;;;;;17.55;74.82;96630.16;5066697;28;20001;-77
2024/03/20 10:14:42;;;;;;;;;;;;;;;17.74;75.45;96637.66;5066987;28;19954;-77
2024/03/20 10:17:10;;;;;;;;;;;;;;;17.86;72.76;96638.28;5084237;28;19942;-73
2024/03/20 10:19:36;;;;;;;;;;;;;;;17.75;63.05;96645.38;5084248;28;19953;-77
2024/03/20 10:22:03;;;;;;;;;;;;;;;17.63;67.34;96666.78;5084930;28;19942;-77
2024/03/20 10:24:31;;;;;;;;;;;;;;;17.76;69.83;96662.88;5066797;28;19965;-77
2024/03/20 10:26:57;;;;;;;;;;;;;;;17.99;64.61;96666.19;5066206;28;19950;-77
2024/03/20 10:29:25;;;;;;;;;;;;;;;18.05;66.97;96673.91;5066890;28;19948;-77
2024/03/20 10:31:53;;;;;;;;;;;;;;;17.81;53.54;96680.69;5084045;28;19943;-77
2024/03/20 10:34:21;;;;;;;;;;;;;;;17.77;66.98;96692.88;5049562;28;19945;-82
2024/03/20 10:36:48;;;;;;;;;;;;;;;18.01;63.54;96682.63;5067013;28;19950;-86
2024/03/20 10:39:17;;;;;;;;;;;;;;;18.30;66.71;96688.31;5084529;28;20110;-84
2024/03/20 10:41:45;;;;;;;;;;;;;;;18.57;62.11;96682.03;5062697;28;19962;-85
2024/03/20 10:44:16;;;;;;;;;;;;;;;18.81;62.92;96682.34;5062679;28;19965;-85
2024/03/20 10:46:50;;;;;;;;;;;;;;;18.95;63.08;96680.75;5063488;28;19945;-84
2024/03/20 10:49:23;;;;;;;;;;;;;;;19.13;63.10;96686.59;5063877;28;19935;-84
2024/03/20 10:51:50;;;;;;;;;;;;;;;19.18;56.56;96687.41;5063806;28;19936;-77
2024/03/20 10:54:17;;;;;;;;;;;;;;;19.09;58.66;96686.34;5062684;28;19934;-77
2024/03/20 10:56:43;;;;;;;;;;;;;;;19.17;59.23;96683.16;5064281;28;19963;-70
2024/03/20 10:59:13;;;;;;;;;;;;;;;19.31;53.46;96677.28;5063258;28;20167;-70
2024/03/20 11:01:44;;;;;;;;;;;;;;;19.35;58.86;96681.78;5065479;28;19934;-70
2024/03/20 11:04:10;;;;;;;;;;;;;;;19.43;66.33;96683.91;5068859;28;19953;-71
2024/03/20 11:06:39;;;;;;;;;;;;;;;19.29;56.15;96679.41;5067811;28;19947;-70
2024/03/20 11:09:07;;;;;;;;;;;;;;;19.20;60.67;96687.13;5067615;28;19950;-70
2024/03/20 11:11:33;;;;;;;;;;;;;;;19.21;55.46;96684.22;5067731;28;20316;-79
2024/03/20 11:14:01;;;;;;;;;;;;;;;19.25;56.11;96677.28;5067672;28;19974;-83
2024/03/20 11:16:28;;;;;;;;;;;;;;;19.33;53.08;96683.94;5067330;28;19941;-85
2024/03/20 11:18:53;;;;;;;;;;;;;;;19.35;52.95;96676.47;5067604;28;19933;-83
2024/03/20 11:21:21;;;;;;;;;;;;;;;19.43;49.68;96670.63;5068377;28;19988;-84
2024/03/20 11:23:50;;;;;;;;;;;;;;;19.38;50.47;96675.13;5068230;28;20099;-85
2024/03/20 11:26:16;;;;;;;;;;;;;;;19.30;52.44;96684.47;5067989;28;19944;-84
2024/03/20 11:28:45;;;;;;;;;;;;;;;19.23;51.91;96679.44;5068236;28;19979;-77
2024/03/20 11:31:11;;;;;;;;;;;;;;;19.36;51.45;96683.41;5067064;28;20128;-82
2024/03/20 11:33:40;;;;;;;;;;;;;;;19.60;53.52;96686.28;5066304;28;19940;-84
2024/03/20 11:36:08;;;;;;;;;;;;;;;19.78;51.14;96684.13;5068061;28;19982;-83
2024/03/20 11:38:38;;;;;;;;;;;;;;;19.93;50.97;96675.28;5067816;28;19940;-83
2024/03/20 11:41:04;;;;;;;;;;;;;;;20.05;47.06;96684.59;5068796;28;19942;-83
2024/03/20 11:43:33;;;;;;;;;;;;;;;20.14;47.50;96681.31;5087683;28;19963;-84
2024/03/20 11:46:00;;;;;;;;;;;;;;;20.03;47.62;96685.91;5070100;28;20008;-83
2024/03/20 11:48:26;;;;;;;;;;;;;;;20.07;47.87;96682.44;5087870;28;20075;-71
2024/03/20 11:50:51;;;;;;;;;;;;;;;20.17;45.53;96676.25;5087885;28;19980;-71
2024/03/20 11:53:18;;;;;;;;;;;;;;;20.18;42.47;96683.19;5069960;28;19934;-69
2024/03/20 11:55:44;;;;;;;;;;;;;;;20.04;44.72;96674.97;5087713;28;20124;-69
2024/03/20 11:58:14;;;;;;;;;;;;;;;19.82;46.62;96672.69;5069180;28;19940;-70
2024/03/20 12:00:40;;;;;;;;;;;;;;;19.82;43.81;96671.88;5087358;28;19940;-70
2024/03/20 12:03:27;;;;;;;;;;;;;;;19.93;43.09;96672.63;5086601;28;19954;-70
2024/03/20 12:06:13;;;;;;;;;;;;;;;19.94;45.54;96672.38;5087557;28;20107;-77
2024/03/20 12:08:39;;;;;;;;;;;;;;;19.87;45.12;96667.34;5069685;28;19971;-71
2024/03/20 12:11:18;;;;;;;;;;;;;;;19.84;47.62;96664.41;5086585;28;19935;-71
2024/03/20 12:13:44;;;;;;;;;;;;;;;19.80;41.38;96658.03;5085232;28;19944;-71
2024/03/20 12:16:11;;;;;;;;;;;;;;;19.80;41.02;96663.34;5068642;28;19941;-71
2024/03/20 12:18:38;;;;;;;;;;;;;;;19.83;48.87;96663.63;5068633;28;19938;-70
2024/03/20 12:21:04;;;;;;;;;;;;;;;19.80;42.47;96655.38;5087252;28;19928;-71
2024/03/20 12:23:31;;;;;;;;;;;;;;;19.89;42.76;96666.28;5068251;28;19961;-71
2024/03/20 12:25:58;;;;;;;;;;;;;;;19.63;39.84;96664.47;5051842;28;20138;-72
2024/03/20 12:28:25;;;;;;;;;;;;;;;19.63;47.22;96672.44;5086412;28;19941;-71
2024/03/20 12:30:50;;;;;;;;;;;;;;;19.82;45.32;96661.22;5086321;28;19937;-71
2024/03/20 12:33:18;;;;;;;;;;;;;;;20.02;43.61;96660.34;5068863;28;20024;-71
2024/03/20 12:35:45;;;;;;;;;;;;;;;20.20;42.92;96651.75;5051548;28;19995;-71
2024/03/20 12:38:11;;;;;;;;;;;;;;;20.20;42.10;96650.94;5086149;28;19937;-71
2024/03/20 12:40:37;;;;;;;;;;;;;;;19.95;35.87;96646.53;5086961;28;19943;-71
2024/03/20 12:43:04;;;;;;;;;;;;;;;19.91;41.64;96653.47;5085856;28;19974;-71